Time;durP1;ratioP1;P1;durP2;ratioP2;P2;SDS_P1;SDS_P2;PMS_P1;PMS_P2;Temp;Humidity;BMP_temperature;BMP_pressure;BME280_temperature;BME280_humidity;BME280_pressure;Samples;Min_cycle;Max_cycle;Signal;HPM_P1;HPM_P2
2023/07/19 00:01:04;;;;;;;145.95;132.63;;;;;;;;;;5031707;28;20693;-57
2023/07/19 00:03:30;;;;;;;256.70;232.80;;;;;;;;;;5032038;28;20063;-56
2023/07/19 00:05:55;;;;;;;347.77;318.70;;;;;;;;;;5032150;28;20528;-58
2023/07/19 00:08:20;;;;;;;82.88;72.20;;;;;;;;;;5032229;28;20416;-61
2023/07/19 00:10:45;;;;;;;116.90;106.03;;;;;;;;;;5032391;28;20225;-58
2023/07/19 00:13:11;;;;;;;29.63;15.40;;;;;;;;;;5034106;28;20311;-57
2023/07/19 00:15:36;;;;;;;117.68;105.97;;;;;;;;;;4997406;28;20295;-58
2023/07/19 00:18:01;;;;;;;317.73;290.87;;;;;;;;;;5034869;28;20624;-58
2023/07/19 00:20:26;;;;;;;188.07;171.53;;;;;;;;;;5033185;28;20271;-57
2023/07/19 00:22:52;;;;;;;192.77;175.70;;;;;;;;;;5035063;28;20358;-56
2023/07/19 00:25:17;;;;;;;329.17;300.57;;;;;;;;;;5032678;28;20358;-56
2023/07/19 00:27:42;;;;;;;281.23;256.85;;;;;;;;;;5033388;28;20320;-57
2023/07/19 00:30:08;;;;;;;154.57;139.57;;;;;;;;;;5016736;28;20021;-57
2023/07/19 00:32:33;;;;;;;211.43;193.02;;;;;;;;;;5033347;28;20764;-56
2023/07/19 00:34:59;;;;;;;358.25;328.33;;;;;;;;;;5034198;28;20020;-56
2023/07/19 00:37:24;;;;;;;324.37;297.53;;;;;;;;;;5031922;28;20573;-58
2023/07/19 00:39:49;;;;;;;298.77;274.73;;;;;;;;;;5032886;28;20735;-57
2023/07/19 00:42:14;;;;;;;234.27;214.47;;;;;;;;;;5032259;28;20609;-55
2023/07/19 00:44:39;;;;;;;175.35;160.02;;;;;;;;;;5035583;28;20563;-55
2023/07/19 00:47:05;;;;;;;315.00;286.50;;;;;;;;;;5033817;28;20036;-56
2023/07/19 00:49:31;;;;;;;275.15;251.45;;;;;;;;;;5033176;28;20039;-58
2023/07/19 00:51:58;;;;;;;60.85;54.35;;;;;;;;;;5034757;28;20655;-58
2023/07/19 00:54:23;;;;;;;111.03;100.63;;;;;;;;;;5033628;28;20706;-57
2023/07/19 00:56:49;;;;;;;155.32;140.55;;;;;;;;;;5032696;28;20107;-59
2023/07/19 00:59:15;;;;;;;94.82;84.40;;;;;;;;;;5032391;28;20819;-60
2023/07/19 01:01:42;;;;;;;37.15;24.30;;;;;;;;;;5032786;28;20585;-60
2023/07/19 01:04:07;;;;;;;111.03;100.05;;;;;;;;;;5034190;28;20025;-60
2023/07/19 01:06:32;;;;;;;224.47;203.83;;;;;;;;;;5032508;28;20025;-57
2023/07/19 01:08:57;;;;;;;214.63;195.93;;;;;;;;;;5034626;28;20295;-57
2023/07/19 01:11:23;;;;;;;113.75;101.95;;;;;;;;;;5032698;28;20029;-58
2023/07/19 01:13:49;;;;;;;17.85;6.50;;;;;;;;;;5034054;28;20020;-57
2023/07/19 01:16:14;;;;;;;29.17;16.42;;;;;;;;;;5033154;28;20079;-57
2023/07/19 01:18:40;;;;;;;155.50;140.23;;;;;;;;;;5033138;28;20032;-57
2023/07/19 01:21:05;;;;;;;20.30;6.97;;;;;;;;;;5033644;28;20082;-56
2023/07/19 01:23:30;;;;;;;22.07;8.90;;;;;;;;;;5033893;28;20263;-60
2023/07/19 01:25:55;;;;;;;40.47;27.50;;;;;;;;;;5033217;28;20276;-58
2023/07/19 01:28:21;;;;;;;38.53;23.95;;;;;;;;;;5032923;28;20020;-59
2023/07/19 01:30:46;;;;;;;17.40;7.40;;;;;;;;;;5032994;28;20060;-57
2023/07/19 01:33:11;;;;;;;54.20;43.50;;;;;;;;;;5034554;28;20346;-57
2023/07/19 01:35:37;;;;;;;78.83;72.00;;;;;;;;;;5032525;28;20230;-56
2023/07/19 01:38:02;;;;;;;163.52;149.45;;;;;;;;;;5033659;28;20259;-57
2023/07/19 01:40:27;;;;;;;51.80;34.33;;;;;;;;;;5031866;28;20048;-57
2023/07/19 01:42:53;;;;;;;43.87;37.13;;;;;;;;;;5033330;28;20325;-56
2023/07/19 01:45:18;;;;;;;172.83;158.27;;;;;;;;;;5032937;28;20362;-56
2023/07/19 01:47:43;;;;;;;118.72;107.90;;;;;;;;;;5032629;28;20363;-56
2023/07/19 01:50:09;;;;;;;117.45;106.30;;;;;;;;;;5033532;28;20025;-58
2023/07/19 01:52:34;;;;;;;32.70;10.95;;;;;;;;;;5031795;28;20025;-56
2023/07/19 01:54:59;;;;;;;24.13;14.20;;;;;;;;;;5033295;28;20029;-57
2023/07/19 01:57:25;;;;;;;112.20;100.60;;;;;;;;;;5032164;28;20029;-59
2023/07/19 01:59:50;;;;;;;19.53;5.57;;;;;;;;;;5034127;28;20260;-59
2023/07/19 02:02:15;;;;;;;19.05;5.18;;;;;;;;;;5033083;28;20260;-57
2023/07/19 02:04:40;;;;;;;24.10;19.50;;;;;;;;;;5032732;28;20021;-57
2023/07/19 02:07:05;;;;;;;15.63;5.20;;;;;;;;;;5031426;28;20271;-56
2023/07/19 02:09:31;;;;;;;30.77;11.43;;;;;;;;;;5032027;28;20298;-58
2023/07/19 02:11:56;;;;;;;17.93;5.40;;;;;;;;;;5032736;28;20272;-57
2023/07/19 02:14:21;;;;;;;16.93;6.60;;;;;;;;;;5031258;28;20289;-57
2023/07/19 02:16:46;;;;;;;25.33;11.90;;;;;;;;;;5032317;28;20259;-57
2023/07/19 02:19:12;;;;;;;126.40;115.82;;;;;;;;;;5032998;28;20252;-56
2023/07/19 02:21:37;;;;;;;26.45;6.78;;;;;;;;;;5031330;28;20068;-57
2023/07/19 02:24:02;;;;;;;143.68;129.52;;;;;;;;;;5032881;28;20391;-56
2023/07/19 02:26:27;;;;;;;232.40;210.05;;;;;;;;;;5030628;28;20592;-57
2023/07/19 02:28:53;;;;;;;25.60;5.83;;;;;;;;;;5033229;28;20417;-57
2023/07/19 02:31:18;;;;;;;27.50;16.27;;;;;;;;;;5032131;28;20276;-58
2023/07/19 02:33:43;;;;;;;27.33;18.53;;;;;;;;;;5030969;28;20298;-58
2023/07/19 02:36:09;;;;;;;17.55;5.30;;;;;;;;;;5032782;28;20374;-58
2023/07/19 02:38:35;;;;;;;29.05;9.70;;;;;;;;;;5033478;28;20021;-58
2023/07/19 02:41:00;;;;;;;33.07;17.70;;;;;;;;;;5036357;28;20029;-59
2023/07/19 02:43:26;;;;;;;58.78;48.10;;;;;;;;;;5036137;28;20302;-58
2023/07/19 02:45:52;;;;;;;31.55;18.98;;;;;;;;;;5036143;28;20040;-59
2023/07/19 02:48:17;;;;;;;19.05;5.10;;;;;;;;;;5036124;28;20465;-57
2023/07/19 02:50:46;;;;;;;18.58;5.28;;;;;;;;;;5034845;28;20154;-58
2023/07/19 02:53:11;;;;;;;16.17;5.07;;;;;;;;;;5036297;28;20028;-58
2023/07/19 02:55:36;;;;;;;27.00;6.80;;;;;;;;;;5035255;28;20033;-58
2023/07/19 02:58:02;;;;;;;43.27;37.77;;;;;;;;;;5036918;28;20438;-58
2023/07/19 03:00:27;;;;;;;153.40;140.82;;;;;;;;;;5035971;28;20372;-58
2023/07/19 03:02:53;;;;;;;20.88;6.00;;;;;;;;;;5037536;28;20414;-59
2023/07/19 03:05:19;;;;;;;33.17;24.98;;;;;;;;;;5036231;28;20143;-58
2023/07/19 03:07:44;;;;;;;20.83;6.10;;;;;;;;;;5035337;28;20131;-58
2023/07/19 03:10:10;;;;;;;22.75;11.35;;;;;;;;;;5036028;28;20020;-59
2023/07/19 03:12:35;;;;;;;19.95;6.32;;;;;;;;;;5036395;28;20035;-59
2023/07/19 03:15:00;;;;;;;15.27;5.60;;;;;;;;;;5036937;28;20502;-59
2023/07/19 03:17:25;;;;;;;81.40;74.40;;;;;;;;;;5034638;28;20714;-58
2023/07/19 03:19:50;;;;;;;30.48;25.90;;;;;;;;;;5019860;28;20348;-58
2023/07/19 03:22:16;;;;;;;15.50;6.33;;;;;;;;;;5035530;28;20591;-57
2023/07/19 03:24:41;;;;;;;22.30;7.17;;;;;;;;;;5034771;28;20619;-59
2023/07/19 03:27:06;;;;;;;13.80;5.50;;;;;;;;;;5035767;28;20263;-57
2023/07/19 03:29:31;;;;;;;100.90;91.67;;;;;;;;;;5034999;28;20287;-58
2023/07/19 03:31:57;;;;;;;352.80;326.73;;;;;;;;;;5035681;28;20279;-58
2023/07/19 03:34:22;;;;;;;14.57;6.43;;;;;;;;;;5035724;28;20049;-57
2023/07/19 03:36:47;;;;;;;17.47;7.30;;;;;;;;;;5034024;28;20775;-59
2023/07/19 03:39:12;;;;;;;34.60;28.13;;;;;;;;;;5035460;28;20263;-59
2023/07/19 03:41:38;;;;;;;19.63;6.35;;;;;;;;;;5034791;28;20270;-57
2023/07/19 03:44:03;;;;;;;13.80;5.50;;;;;;;;;;5034812;28;20539;-57
2023/07/19 03:46:28;;;;;;;50.95;41.47;;;;;;;;;;5033256;28;20290;-58
2023/07/19 03:48:53;;;;;;;14.52;5.45;;;;;;;;;;5035099;28;20041;-58
2023/07/19 03:51:19;;;;;;;19.60;12.97;;;;;;;;;;5033305;28;20063;-58
2023/07/19 03:53:44;;;;;;;60.58;54.47;;;;;;;;;;5034453;28;20170;-58
2023/07/19 03:56:09;;;;;;;29.07;22.13;;;;;;;;;;5035327;28;20044;-57
2023/07/19 03:58:35;;;;;;;18.43;5.87;;;;;;;;;;5035008;28;20826;-58
2023/07/19 04:01:00;;;;;;;26.80;11.63;;;;;;;;;;5033608;28;20602;-63
2023/07/19 04:03:26;;;;;;;201.98;186.30;;;;;;;;;;5034161;28;20052;-58
2023/07/19 04:05:54;;;;;;;157.70;143.95;;;;;;;;;;5034463;28;20064;-58
2023/07/19 04:08:19;;;;;;;19.02;8.88;;;;;;;;;;5035578;28;20048;-58
2023/07/19 04:10:45;;;;;;;31.08;19.98;;;;;;;;;;5033397;28;20171;-58
2023/07/19 04:13:10;;;;;;;17.80;9.60;;;;;;;;;;5035101;28;20349;-59
2023/07/19 04:15:36;;;;;;;18.35;6.43;;;;;;;;;;5031783;28;20700;-58
2023/07/19 04:18:01;;;;;;;78.97;71.85;;;;;;;;;;5034143;28;20481;-59
2023/07/19 04:20:28;;;;;;;99.15;90.07;;;;;;;;;;5035477;28;20376;-59
2023/07/19 04:22:53;;;;;;;105.25;95.60;;;;;;;;;;5034391;28;20226;-59
2023/07/19 04:25:18;;;;;;;229.13;208.93;;;;;;;;;;5016060;28;20028;-59
2023/07/19 04:27:44;;;;;;;20.90;6.35;;;;;;;;;;5033109;28;20278;-59
2023/07/19 04:30:09;;;;;;;256.00;235.17;;;;;;;;;;5034484;28;20541;-59
2023/07/19 04:32:34;;;;;;;148.15;135.18;;;;;;;;;;5033822;28;20641;-58
2023/07/19 04:34:59;;;;;;;259.23;237.25;;;;;;;;;;5033615;28;20017;-59
2023/07/19 04:37:25;;;;;;;28.40;19.57;;;;;;;;;;5033586;28;20140;-59
2023/07/19 04:39:50;;;;;;;20.47;11.80;;;;;;;;;;5033201;28;20064;-59
2023/07/19 04:42:22;;;;;;;63.63;57.58;;;;;;;;;;5034150;28;20449;-59
2023/07/19 04:44:47;;;;;;;93.05;84.50;;;;;;;;;;5010332;28;20357;-59
2023/07/19 04:47:12;;;;;;;146.83;134.27;;;;;;;;;;5033589;28;20427;-59
2023/07/19 04:49:38;;;;;;;18.65;8.57;;;;;;;;;;5032696;28;20284;-59
2023/07/19 04:52:03;;;;;;;16.00;7.83;;;;;;;;;;5033958;28;20029;-59
2023/07/19 04:54:28;;;;;;;93.47;84.90;;;;;;;;;;5033926;28;20679;-58
2023/07/19 04:56:54;;;;;;;120.95;109.88;;;;;;;;;;5032310;28;20036;-59
2023/07/19 04:59:19;;;;;;;15.90;9.68;;;;;;;;;;5034737;28;20036;-59
2023/07/19 05:01:44;;;;;;;42.13;34.42;;;;;;;;;;5032319;28;20179;-59
2023/07/19 05:04:09;;;;;;;295.00;270.17;;;;;;;;;;5034785;28;20801;-59
2023/07/19 05:06:35;;;;;;;244.52;223.60;;;;;;;;;;5033407;28;20264;-58
2023/07/19 05:09:00;;;;;;;96.13;86.77;;;;;;;;;;5034261;28;20070;-59
2023/07/19 05:11:25;;;;;;;54.90;44.27;;;;;;;;;;5034083;28;20819;-59
2023/07/19 05:13:51;;;;;;;109.95;99.32;;;;;;;;;;5031681;28;20247;-59
2023/07/19 05:16:16;;;;;;;285.30;262.77;;;;;;;;;;5032941;28;20136;-59
2023/07/19 05:18:41;;;;;;;274.00;252.15;;;;;;;;;;5032782;28;20445;-59
2023/07/19 05:21:07;;;;;;;245.38;225.57;;;;;;;;;;5033585;28;20147;-59
2023/07/19 05:23:32;;;;;;;76.03;69.07;;;;;;;;;;5033292;28;20116;-58
2023/07/19 05:25:57;;;;;;;190.17;172.90;;;;;;;;;;5034340;28;20555;-59
2023/07/19 05:28:22;;;;;;;290.83;267.13;;;;;;;;;;5034344;28;20267;-57
2023/07/19 05:30:48;;;;;;;318.70;294.27;;;;;;;;;;5032517;28;20287;-58
2023/07/19 05:33:13;;;;;;;133.80;121.60;;;;;;;;;;5033734;28;20286;-58
2023/07/19 05:35:38;;;;;;;351.27;324.40;;;;;;;;;;5031411;28;20036;-59
2023/07/19 05:38:03;;;;;;;324.93;299.40;;;;;;;;;;5033708;28;20792;-59
2023/07/19 05:40:30;;;;;;;306.83;278.67;;;;;;;;;;5033010;28;20040;-59
2023/07/19 05:42:56;;;;;;;337.67;311.77;;;;;;;;;;5032514;28;20306;-58
2023/07/19 05:45:21;;;;;;;379.35;350.85;;;;;;;;;;5013311;28;20404;-58
2023/07/19 05:47:46;;;;;;;317.50;288.90;;;;;;;;;;5031508;28;20051;-59
2023/07/19 05:50:12;;;;;;;336.00;309.13;;;;;;;;;;5033344;28;20103;-58
2023/07/19 05:52:39;;;;;;;322.87;297.47;;;;;;;;;;5032439;28;20092;-59
2023/07/19 05:55:04;;;;;;;254.55;235.23;;;;;;;;;;5033475;28;20356;-59
2023/07/19 05:57:30;;;;;;;270.45;247.75;;;;;;;;;;5032599;28;20025;-60
2023/07/19 05:59:55;;;;;;;269.85;249.00;;;;;;;;;;5031667;28;20016;-59
2023/07/19 06:02:21;;;;;;;287.33;262.83;;;;;;;;;;5033034;28;20435;-58
2023/07/19 06:04:47;;;;;;;283.80;260.27;;;;;;;;;;5033005;28;20268;-58
2023/07/19 06:07:12;;;;;;;414.23;382.67;;;;;;;;;;5032168;28;20550;-59
2023/07/19 06:09:37;;;;;;;453.00;419.87;;;;;;;;;;5031149;28;20040;-60
2023/07/19 06:12:03;;;;;;;484.07;448.53;;;;;;;;;;5032935;28;20256;-59
2023/07/19 06:14:28;;;;;;;519.00;481.40;;;;;;;;;;5030685;28;20013;-59
2023/07/19 06:16:53;;;;;;;449.97;412.40;;;;;;;;;;5030113;28;20111;-58
2023/07/19 06:19:19;;;;;;;531.80;492.53;;;;;;;;;;5033316;28;20255;-58
2023/07/19 06:21:44;;;;;;;504.33;463.80;;;;;;;;;;5011965;28;20056;-59
2023/07/19 06:24:10;;;;;;;470.08;432.98;;;;;;;;;;5032347;28;20021;-58
2023/07/19 06:26:35;;;;;;;552.70;512.60;;;;;;;;;;5030754;28;20036;-58
2023/07/19 06:29:00;;;;;;;495.17;456.33;;;;;;;;;;5032602;28;20067;-59
2023/07/19 06:31:25;;;;;;;569.97;524.50;;;;;;;;;;5033042;28;20037;-58
2023/07/19 06:33:50;;;;;;;510.60;472.20;;;;;;;;;;5031153;28;20048;-59
2023/07/19 06:36:16;;;;;;;556.77;512.83;;;;;;;;;;5032206;28;20037;-58
2023/07/19 06:38:41;;;;;;;479.63;443.93;;;;;;;;;;5031864;28;20017;-59
2023/07/19 06:41:06;;;;;;;491.70;454.50;;;;;;;;;;5033720;28;20438;-60
2023/07/19 06:43:31;;;;;;;561.30;518.70;;;;;;;;;;5033809;28;20031;-59
2023/07/19 06:45:57;;;;;;;420.23;386.53;;;;;;;;;;5030490;28;20140;-59
2023/07/19 06:48:23;;;;;;;505.77;467.42;;;;;;;;;;5031052;28;20267;-59
2023/07/19 06:50:49;;;;;;;477.70;441.85;;;;;;;;;;5029595;28;20578;-59
2023/07/19 06:53:14;;;;;;;510.13;471.23;;;;;;;;;;5032714;28;20542;-59
2023/07/19 06:55:40;;;;;;;467.17;432.57;;;;;;;;;;5031012;28;20041;-58
2023/07/19 06:58:05;;;;;;;472.95;437.58;;;;;;;;;;5031872;28;20282;-59
2023/07/19 07:00:30;;;;;;;479.83;442.90;;;;;;;;;;5032140;28;20041;-59
2023/07/19 07:02:55;;;;;;;461.97;424.53;;;;;;;;;;5031534;28;21770;-59
2023/07/19 07:05:21;;;;;;;497.03;457.13;;;;;;;;;;5031224;28;20368;-59
2023/07/19 07:07:46;;;;;;;468.60;432.63;;;;;;;;;;5029875;28;20037;-58
2023/07/19 07:10:12;;;;;;;470.80;432.83;;;;;;;;;;5030928;28;20294;-58
2023/07/19 07:12:37;;;;;;;479.27;442.20;;;;;;;;;;5034028;28;20029;-57
2023/07/19 07:15:03;;;;;;;452.67;418.02;;;;;;;;;;5031395;28;20688;-60
2023/07/19 07:17:28;;;;;;;407.60;375.17;;;;;;;;;;5033771;28;20517;-59
2023/07/19 07:19:54;;;;;;;536.87;492.57;;;;;;;;;;5034185;28;20132;-59
2023/07/19 07:22:19;;;;;;;464.33;427.43;;;;;;;;;;5031858;28;20037;-60
2023/07/19 07:24:44;;;;;;;475.55;435.42;;;;;;;;;;5032522;28;20257;-58
2023/07/19 07:27:10;;;;;;;491.83;454.20;;;;;;;;;;5035278;28;20155;-58
2023/07/19 07:29:36;;;;;;;403.83;370.17;;;;;;;;;;5035142;28;20035;-58
2023/07/19 07:32:01;;;;;;;509.23;466.88;;;;;;;;;;5033803;28;20314;-56
2023/07/19 07:34:26;;;;;;;429.33;390.73;;;;;;;;;;5036336;28;20310;-59
2023/07/19 07:36:52;;;;;;;493.50;452.60;;;;;;;;;;5036055;28;20284;-58
2023/07/19 07:39:35;;;;;;;406.20;373.45;;;;;;;;;;5038253;28;20787;-55
2023/07/19 07:44:35;;;;;;;443.52;406.55;;;;;;;;;;5592210;22;20072;-57
2023/07/19 07:47:01;;;;;;;464.97;423.27;;;;;;;;;;5022173;28;20033;-57
2023/07/19 07:49:26;;;;;;;588.73;540.43;;;;;;;;;;5027584;28;20507;-58
2023/07/19 07:51:51;;;;;;;464.70;422.47;;;;;;;;;;5024085;28;20028;-57
2023/07/19 07:54:41;;;;;;;536.95;491.85;;;;;;;;;;5020757;28;20017;-56
2023/07/19 07:57:07;;;;;;;399.53;366.23;;;;;;;;;;5005556;28;20584;-56
2023/07/19 07:59:32;;;;;;;543.85;495.38;;;;;;;;;;5007298;28;20029;-58
2023/07/19 08:01:57;;;;;;;426.37;391.10;;;;;;;;;;5009172;28;20037;-58
2023/07/19 08:04:23;;;;;;;555.53;505.97;;;;;;;;;;5006535;28;20025;-57
2023/07/19 08:06:48;;;;;;;397.33;363.27;;;;;;;;;;5004946;28;20192;-56
2023/07/19 08:09:13;;;;;;;452.53;415.23;;;;;;;;;;5006812;28;20088;-58
2023/07/19 08:11:38;;;;;;;541.50;490.23;;;;;;;;;;5006209;28;20030;-57
2023/07/19 08:14:04;;;;;;;630.00;569.23;;;;;;;;;;5005652;28;20491;-55
2023/07/19 08:16:29;;;;;;;410.77;376.13;;;;;;;;;;5005919;28;20029;-56
2023/07/19 08:18:54;;;;;;;505.60;458.88;;;;;;;;;;5008763;28;20099;-56
2023/07/19 08:21:20;;;;;;;435.90;399.47;;;;;;;;;;5008269;28;20038;-55
2023/07/19 08:23:45;;;;;;;557.13;509.00;;;;;;;;;;5006583;28;20474;-56
2023/07/19 08:26:10;;;;;;;569.55;512.33;;;;;;;;;;5007639;28;20053;-56
2023/07/19 08:28:36;;;;;;;461.70;422.27;;;;;;;;;;5008733;28;21550;-57
2023/07/19 08:31:01;;;;;;;621.93;561.70;;;;;;;;;;5007296;28;20099;-56
2023/07/19 08:33:28;;;;;;;465.67;424.73;;;;;;;;;;5001407;28;20032;-56
2023/07/19 08:35:53;;;;;;;399.40;366.25;;;;;;;;;;5002980;28;20041;-60
2023/07/19 08:38:18;;;;;;;443.42;406.80;;;;;;;;;;5005264;28;20101;-60
2023/07/19 08:40:53;;;;;;;702.67;628.95;;;;;;;;;;5007578;28;20041;-60
2023/07/19 08:43:18;;;;;;;844.88;385.13;;;;;;;;;;5024162;28;20050;-59
2023/07/19 08:45:44;;;;;;;625.10;567.67;;;;;;;;;;5021175;28;20107;-60
2023/07/19 08:48:09;;;;;;;663.30;601.08;;;;;;;;;;5022394;28;20028;-61
2023/07/19 08:50:36;;;;;;;551.20;502.23;;;;;;;;;;5024297;28;20528;-60
2023/07/19 08:53:02;;;;;;;488.30;448.58;;;;;;;;;;5021737;28;20491;-61
2023/07/19 08:55:29;;;;;;;518.33;472.25;;;;;;;;;;5022726;28;20029;-58
2023/07/19 08:57:54;;;;;;;472.67;429.52;;;;;;;;;;5023651;28;20127;-60
2023/07/19 09:00:20;;;;;;;443.23;404.60;;;;;;;;;;5023091;28;20021;-56
2023/07/19 09:02:45;;;;;;;619.50;563.83;;;;;;;;;;5023289;28;20259;-58
2023/07/19 09:05:12;;;;;;;545.53;482.07;;;;;;;;;;5023819;28;20020;-57
2023/07/19 09:07:40;;;;;;;693.58;598.75;;;;;;;;;;5025286;28;20359;-60
2023/07/19 09:10:06;;;;;;;488.02;446.58;;;;;;;;;;5025264;28;20032;-57
2023/07/19 09:12:37;;;;;;;553.08;502.58;;;;;;;;;;5024603;28;20411;-57
2023/07/19 09:15:03;;;;;;;;;;;;;;;;;;5023094;28;20083;-59
2023/07/19 09:17:28;;;;;;;436.33;399.70;;;;;;;;;;5025384;28;19913;-56
2023/07/19 09:19:54;;;;;;;487.33;442.60;;;;;;;;;;5024090;28;20033;-58
2023/07/19 09:22:19;;;;;;;549.57;495.10;;;;;;;;;;5025797;28;20037;-58
2023/07/19 09:25:01;;;;;;;545.77;488.90;;;;;;;;;;5026972;28;20531;-58
2023/07/19 09:27:26;;;;;;;401.77;368.02;;;;;;;;;;5025407;28;20034;-57
2023/07/19 09:29:51;;;;;;;419.58;383.73;;;;;;;;;;5024802;28;20025;-57
2023/07/19 09:32:17;;;;;;;490.67;447.13;;;;;;;;;;5025886;28;20860;-58
2023/07/19 09:34:43;;;;;;;698.30;633.10;;;;;;;;;;5027044;28;20045;-58
2023/07/19 09:37:10;;;;;;;630.97;573.33;;;;;;;;;;5025286;28;20523;-57
2023/07/19 09:39:35;;;;;;;549.15;502.42;;;;;;;;;;5028462;28;20021;-58
2023/07/19 09:42:01;;;;;;;570.17;513.88;;;;;;;;;;5023692;28;20028;-58
2023/07/19 09:44:27;;;;;;;676.28;612.88;;;;;;;;;;5026168;28;20624;-58
2023/07/19 09:46:53;;;;;;;638.42;573.45;;;;;;;;;;5023981;28;20033;-58
2023/07/19 09:49:18;;;;;;;545.47;493.02;;;;;;;;;;5025376;28;20280;-57
2023/07/19 09:51:43;;;;;;;643.87;561.43;;;;;;;;;;5026009;28;20051;-58
2023/07/19 09:54:10;;;;;;;499.92;460.80;;;;;;;;;;5025156;28;20156;-58
2023/07/19 09:56:35;;;;;;;431.67;396.75;;;;;;;;;;5024464;28;20252;-58
2023/07/19 09:59:01;;;;;;;556.92;513.55;;;;;;;;;;5024486;28;20018;-57
2023/07/19 10:01:27;;;;;;;577.33;528.85;;;;;;;;;;5024027;28;20033;-58
2023/07/19 10:03:52;;;;;;;606.20;549.45;;;;;;;;;;5023089;28;20021;-56
2023/07/19 10:06:17;;;;;;;482.53;443.93;;;;;;;;;;5024485;28;20313;-58
2023/07/19 10:08:43;;;;;;;510.07;466.57;;;;;;;;;;5026033;28;20451;-57
2023/07/19 10:11:20;;;;;;;545.17;496.48;;;;;;;;;;5024952;28;20424;-58
2023/07/19 10:13:56;;;;;;;526.13;481.98;;;;;;;;;;5025176;28;20021;-56
2023/07/19 10:16:23;;;;;;;462.42;424.30;;;;;;;;;;5025358;28;20057;-56
2023/07/19 10:19:07;;;;;;;499.73;454.48;;;;;;;;;;5023674;28;20044;-56
2023/07/19 10:21:32;;;;;;;412.58;370.40;;;;;;;;;;5022857;28;20038;-55
2023/07/19 10:24:05;;;;;;;710.57;640.37;;;;;;;;;;5022011;28;20075;-58
2023/07/19 10:26:30;;;;;;;422.92;388.52;;;;;;;;;;5025793;28;20040;-58
2023/07/19 10:29:03;;;;;;;633.72;571.10;;;;;;;;;;5024713;28;20029;-57
2023/07/19 10:31:28;;;;;;;700.72;635.30;;;;;;;;;;5022997;28;20037;-57
2023/07/19 10:33:54;;;;;;;522.77;475.20;;;;;;;;;;5024296;28;20040;-56
2023/07/19 10:36:20;;;;;;;399.10;364.70;;;;;;;;;;5023334;28;20036;-56
2023/07/19 10:38:45;;;;;;;518.90;470.23;;;;;;;;;;5026971;28;20029;-56
2023/07/19 10:41:12;;;;;;;619.47;566.43;;;;;;;;;;5024030;28;20329;-56
2023/07/19 10:43:38;;;;;;;512.00;471.02;;;;;;;;;;5024450;28;20030;-58
2023/07/19 10:46:04;;;;;;;536.55;481.08;;;;;;;;;;5022633;28;20049;-59
2023/07/19 10:48:30;;;;;;;572.63;522.63;;;;;;;;;;5025552;28;20021;-57
2023/07/19 10:50:59;;;;;;;681.05;616.78;;;;;;;;;;5024006;28;20041;-57
2023/07/19 10:53:25;;;;;;;454.58;419.35;;;;;;;;;;5024204;28;20033;-57
2023/07/19 10:55:54;;;;;;;499.67;459.70;;;;;;;;;;5024861;28;20083;-55
2023/07/19 10:58:19;;;;;;;458.27;417.88;;;;;;;;;;5024124;28;20222;-57
2023/07/19 11:00:45;;;;;;;592.30;542.07;;;;;;;;;;5027479;28;20030;-55
2023/07/19 11:03:14;;;;;;;513.45;469.42;;;;;;;;;;5027459;28;20726;-58
2023/07/19 11:05:41;;;;;;;477.75;432.70;;;;;;;;;;5028169;28;20099;-58
2023/07/19 11:08:06;;;;;;;532.30;484.05;;;;;;;;;;5025160;28;20037;-57
2023/07/19 11:10:31;;;;;;;665.25;597.17;;;;;;;;;;5028711;28;20033;-57
2023/07/19 11:12:57;;;;;;;518.20;472.93;;;;;;;;;;5018796;28;20021;-57
2023/07/19 11:15:24;;;;;;;633.77;573.73;;;;;;;;;;5028999;28;20283;-57
2023/07/19 11:17:55;;;;;;;582.28;528.80;;;;;;;;;;5013448;28;20024;-58
2023/07/19 11:20:26;;;;;;;554.83;462.00;;;;;;;;;;5029737;28;20448;-58
2023/07/19 11:22:52;;;;;;;621.03;503.73;;;;;;;;;;5028271;28;20220;-57
2023/07/19 11:25:17;;;;;;;532.40;477.93;;;;;;;;;;5029557;28;20441;-58
2023/07/19 11:27:42;;;;;;;543.30;487.87;;;;;;;;;;5029732;28;20092;-58
2023/07/19 11:30:07;;;;;;;532.73;485.50;;;;;;;;;;5028138;28;20104;-57
2023/07/19 11:32:33;;;;;;;585.08;529.10;;;;;;;;;;5029581;28;20052;-59
2023/07/19 11:34:59;;;;;;;468.13;427.10;;;;;;;;;;5027746;28;20021;-59
2023/07/19 11:37:24;;;;;;;650.10;581.83;;;;;;;;;;5027870;28;20437;-59
2023/07/19 11:39:50;;;;;;;462.17;422.57;;;;;;;;;;5030625;28;20028;-57
2023/07/19 11:42:34;;;;;;;530.78;484.45;;;;;;;;;;5026535;28;20052;-58
2023/07/19 11:45:06;;;;;;;495.25;449.48;;;;;;;;;;5028315;28;20075;-58
2023/07/19 11:47:31;;;;;;;711.22;434.00;;;;;;;;;;5028668;28;20779;-59
2023/07/19 11:49:57;;;;;;;572.77;514.27;;;;;;;;;;5027570;28;20025;-57
2023/07/19 11:53:25;;;;;;;676.13;504.38;;;;;;;;;;5038488;28;20406;-58
2023/07/19 11:55:51;;;;;;;561.15;389.05;;;;;;;;;;5027571;28;20567;-60
2023/07/19 11:58:16;;;;;;;515.05;463.00;;;;;;;;;;5019989;28;20451;-59
2023/07/19 12:00:42;;;;;;;548.83;448.80;;;;;;;;;;5019098;28;20498;-61
2023/07/19 12:03:07;;;;;;;372.67;261.90;;;;;;;;;;5017836;28;20350;-60
2023/07/19 12:05:33;;;;;;;366.77;268.57;;;;;;;;;;5019814;28;20268;-59
2023/07/19 12:07:58;;;;;;;454.83;327.00;;;;;;;;;;5019706;28;20307;-61
2023/07/19 12:10:24;;;;;;;524.60;289.03;;;;;;;;;;5020317;28;20583;-60
2023/07/19 12:12:49;;;;;;;449.88;359.73;;;;;;;;;;5021345;28;20363;-62
2023/07/19 12:15:15;;;;;;;478.45;362.42;;;;;;;;;;5019857;28;20136;-57
2023/07/19 12:17:41;;;;;;;566.13;435.95;;;;;;;;;;5020830;28;20259;-57
2023/07/19 12:20:07;;;;;;;529.95;269.45;;;;;;;;;;5019673;28;20022;-58
2023/07/19 12:22:33;;;;;;;466.10;403.17;;;;;;;;;;5020505;28;20025;-58
2023/07/19 12:24:59;;;;;;;386.35;305.33;;;;;;;;;;5018098;28;20033;-58
2023/07/19 12:27:25;;;;;;;595.72;366.30;;;;;;;;;;5019627;28;20021;-58
2023/07/19 12:29:50;;;;;;;408.35;325.70;;;;;;;;;;5018705;28;20196;-58
2023/07/19 12:32:16;;;;;;;313.77;231.80;;;;;;;;;;5017405;28;20628;-56
2023/07/19 12:34:43;;;;;;;376.02;313.42;;;;;;;;;;5019664;28;20017;-60
2023/07/19 12:37:08;;;;;;;487.15;334.25;;;;;;;;;;5018191;28;20018;-59
2023/07/19 12:39:33;;;;;;;523.73;423.03;;;;;;;;;;5020169;28;20020;-58
2023/07/19 12:41:58;;;;;;;354.67;226.95;;;;;;;;;;5018604;28;20033;-60
2023/07/19 12:44:24;;;;;;;530.20;392.10;;;;;;;;;;5020200;28;20025;-59
2023/07/19 12:46:49;;;;;;;369.48;312.42;;;;;;;;;;5018205;28;20615;-58
2023/07/19 12:49:15;;;;;;;720.77;512.73;;;;;;;;;;5017908;28;20036;-58
2023/07/19 12:51:42;;;;;;;489.63;411.65;;;;;;;;;;5019011;28;20646;-56
2023/07/19 12:54:07;;;;;;;482.50;248.90;;;;;;;;;;5017530;28;20044;-58
2023/07/19 12:56:33;;;;;;;401.10;317.07;;;;;;;;;;5019153;28;20426;-56
2023/07/19 12:58:58;;;;;;;552.60;493.00;;;;;;;;;;5017978;28;20127;-54
2023/07/19 13:01:23;;;;;;;462.00;404.73;;;;;;;;;;5017473;28;20572;-59
2023/07/19 13:03:49;;;;;;;435.13;343.98;;;;;;;;;;5011768;28;20621;-58
2023/07/19 13:06:14;;;;;;;372.67;273.37;;;;;;;;;;5006191;28;20034;-59
2023/07/19 13:08:39;;;;;;;296.83;205.18;;;;;;;;;;5006445;28;20017;-62
2023/07/19 13:11:05;;;;;;;511.52;366.75;;;;;;;;;;5005141;28;20088;-59
2023/07/19 13:13:30;;;;;;;427.05;380.30;;;;;;;;;;5006431;28;20391;-61
2023/07/19 13:15:56;;;;;;;491.73;312.10;;;;;;;;;;5007135;28;20045;-62
2023/07/19 13:18:21;;;;;;;587.40;376.23;;;;;;;;;;5005662;28;20257;-61
2023/07/19 13:20:46;;;;;;;337.73;260.83;;;;;;;;;;5008033;28;20049;-60
2023/07/19 13:23:16;;;;;;;572.57;464.03;;;;;;;;;;5005553;28;20068;-60
2023/07/19 13:25:41;;;;;;;398.60;336.42;;;;;;;;;;5004884;28;20072;-62
2023/07/19 13:28:07;;;;;;;359.97;235.80;;;;;;;;;;5006131;28;20017;-61
2023/07/19 13:30:32;;;;;;;309.87;222.23;;;;;;;;;;5005717;28;20319;-61
2023/07/19 13:32:57;;;;;;;501.20;444.77;;;;;;;;;;5007079;28;20013;-62
2023/07/19 13:35:22;;;;;;;293.93;226.33;;;;;;;;;;5005132;28;20013;-57
2023/07/19 13:37:47;;;;;;;440.70;393.60;;;;;;;;;;5006072;28;20133;-57
2023/07/19 13:40:13;;;;;;;394.87;262.60;;;;;;;;;;5004442;28;20293;-57
2023/07/19 13:42:38;;;;;;;387.43;344.97;;;;;;;;;;5007279;28;20025;-57
2023/07/19 13:45:04;;;;;;;321.23;228.98;;;;;;;;;;5005484;28;20288;-56
2023/07/19 13:47:29;;;;;;;518.10;401.27;;;;;;;;;;5005378;28;20286;-58
2023/07/19 13:49:54;;;;;;;492.33;338.57;;;;;;;;;;5006790;28;20569;-57
2023/07/19 13:52:19;;;;;;;265.53;198.73;;;;;;;;;;5004767;28;20072;-59
2023/07/19 13:54:45;;;;;;;402.50;290.50;;;;;;;;;;5004313;28;20375;-57